Bei Facebook empfehlenBei Twitter postenGoogle plusPinterest

Das Wetter im Erzgebirge am 25.09.2015

Wetter und Klima am 25.09.2015 Holzhau im Erzgebirge (630m ü.NN)
Letzte gemessene Temperatur und Uhrzeit der Messung23:45:00 Uhr9.20 °C
Temperatur (Maximum / Höchstwert) und Uhrzeit der Messung13:45:00 Uhr18.30 °C
Temperatur (Minimum / Tiefstwert) und Uhrzeit der Messung07:00:002.30 °C
Errechneter Absolutwert der Temperaturschwankungen zwischen Tmin und Tmax des Tages16.00 K
Errechnete Tagesmitteltemperatur9.47292 °C
Gesamt - Niederschlag des Tages (in flüssiger Form)0.00 Liter / m²
Luftdruck (Maximum / Höchstwert) und Zeitpunkt der Messung21:15:00 Uhr1019.30 hPa
Luftdruck (Minimum / Tiefstwert) und Zeitpunkt der Messung07:00:00 Uhr1016.80 hPa
Errechneter Absolutwert der Luftdruckschwankungen des Tages2.50 hPa
Höchste gemessene Windgeschwindigkeit und Uhrzeit der Messung14:15:00 Uhr183.60 km/h
Errechnete Windhäufigkeit in Relation zu den Messwerten des Tages16.66667 %
Niedrigste Windkühle (Windchill) und Zeitpunkt der Messung07:15:00 Uhr0.70 °C
Taupunkt (Maximum / Höchstwert) und Uhrzeit der Messung11:00:00 Uhr13.30 °C
Taupunkt (Minimum / Tiefstwert) und Uhrzeit der Messung07:00:001.30 °C
Anzahl der automatisch eingelesenen Messwerte 96

Detaillierte Wetter- und Klima- Messwerte für den 25.09.2015 in Holzhau im Erzgebirge (630m ü.NN)
ZeitTemperaturLuftdruckRel. LuftfeuchteWindWindrichtungWindchillTaupunktNiederschlag l/m²
23:45:009.20 °C1019.20 hPa90.00 %7.60 °C 
23:30:009.20 °C1019.10 hPa90.00 %7.60 °C 
23:15:009.30 °C1019.10 hPa89.00 %7.60 °C 
23:00:009.30 °C1019.10 hPa89.00 %7.60 °C 
22:45:009.20 °C1019.00 hPa89.00 %7.50 °C 
22:30:009.30 °C1019.20 hPa89.00 %7.60 °C 
22:15:009.40 °C1019.00 hPa88.00 %7.50 °C 
22:00:009.60 °C1019.00 hPa88.00 %7.70 °C 
21:45:009.80 °C1019.20 hPa87.00 %7.70 °C 
21:30:0010.10 °C1019.10 hPa87.00 %8.00 °C 
21:15:0010.10 °C1019.30 hPa86.00 %7.90 °C 
21:00:0010.30 °C1019.20 hPa86.00 %8.10 °C 
20:45:0010.80 °C1019.00 hPa86.00 %8.60 °C 
20:30:0010.90 °C1019.20 hPa85.00 %8.50 °C 
20:15:0011.20 °C1018.90 hPa84.00 %8.60 °C 
20:00:0011.30 °C1018.50 hPa84.00 %8.70 °C 
19:45:0011.50 °C1018.40 hPa83.00 %8.70 °C 
19:30:0011.70 °C1018.20 hPa83.00 %8.90 °C 
19:15:0011.90 °C1017.90 hPa82.00 %8.90 °C 
19:00:0012.20 °C1017.80 hPa81.00 %9.00 °C 
18:45:0012.40 °C1017.80 hPa81.00 %9.20 °C 
18:30:0012.50 °C1017.60 hPa79.00 %9.00 °C 
18:15:0012.90 °C1017.60 hPa78.00 %9.20 °C 
18:00:0013.30 °C1017.70 hPa77.00 %9.40 °C 
17:45:0014.20 °C1017.60 hPa75.00 %9.80 °C 
17:30:0015.30 °C1017.50 hPa75.00 %2.52 km/hNW15.30 °C10.90 °C 
17:15:0015.10 °C1017.40 hPa77.00 %11.10 °C 
17:00:0014.40 °C1017.50 hPa76.00 %10.20 °C 
16:45:0014.80 °C1017.70 hPa76.00 %10.60 °C 
16:30:0014.60 °C1017.60 hPa76.00 %10.40 °C 
16:15:0014.50 °C1017.60 hPa76.00 %10.30 °C 
16:00:0014.80 °C1017.70 hPa75.00 %4.32 km/hNW14.80 °C10.40 °C 
15:45:0014.90 °C1017.90 hPa74.00 %10.30 °C 
15:30:0014.90 °C1017.90 hPa73.00 %6.84 km/hNW15.00 °C10.10 °C 
15:15:0015.30 °C1017.80 hPa72.00 %10.30 °C 
15:00:0016.10 °C1018.10 hPa70.00 %10.60 °C 
14:45:0016.40 °C1018.20 hPa68.00 %10.50 °C 
14:30:0017.40 °C1018.20 hPa68.00 %0.72 km/hWNW17.40 °C11.40 °C 
14:15:0018.10 °C1018.20 hPa67.00 %183.60 km/hW14.70 °C11.90 °C 
14:00:0018.10 °C1018.10 hPa67.00 %11.90 °C 
13:45:0018.30 °C1017.90 hPa67.00 %12.10 °C 
13:30:0018.30 °C1018.20 hPa70.00 %9.72 km/hWNW18.60 °C12.70 °C 
13:15:0017.60 °C1018.40 hPa69.00 %11.80 °C 
13:00:0017.60 °C1018.40 hPa71.00 %12.30 °C 
12:45:0017.20 °C1018.30 hPa72.00 %12.10 °C 
12:30:0016.60 °C1018.10 hPa75.00 %3.24 km/hNW16.60 °C12.20 °C 
12:15:0016.70 °C1018.30 hPa76.00 %9.72 km/hSW16.70 °C12.50 °C 
12:00:0016.50 °C1018.40 hPa79.00 %12.80 °C 
11:45:0016.10 °C1018.10 hPa83.00 %2.52 km/hSSW16.10 °C13.20 °C 
11:30:0015.40 °C1018.30 hPa86.00 %2.52 km/hSSW15.40 °C13.10 °C 
11:15:0014.60 °C1018.00 hPa88.00 %12.60 °C 
11:00:0014.90 °C1017.80 hPa90.00 %3.60 km/hNNW14.90 °C13.30 °C 
10:45:0014.60 °C1017.70 hPa92.00 %13.30 °C 
10:30:0013.80 °C1017.40 hPa94.00 %6.12 km/hWNW13.80 °C12.90 °C 
10:15:0013.40 °C1017.30 hPa95.00 %12.60 °C 
10:00:0012.30 °C1017.40 hPa95.00 %11.50 °C 
09:45:0010.80 °C1017.30 hPa95.00 %10.00 °C 
09:30:008.80 °C1017.30 hPa95.00 %8.00 °C 
09:15:006.90 °C1017.10 hPa95.00 %6.20 °C 
09:00:005.60 °C1017.10 hPa95.00 %4.90 °C 
08:45:004.40 °C1017.10 hPa94.00 %3.50 °C 
08:30:003.40 °C1017.20 hPa94.00 %2.50 °C 
08:15:002.50 °C1017.00 hPa94.00 %1.60 °C 
08:00:002.40 °C1017.00 hPa94.00 %1.50 °C 
07:45:002.40 °C1017.00 hPa94.00 %1.50 °C 
07:30:002.50 °C1017.10 hPa94.00 %1.60 °C 
07:15:002.40 °C1017.00 hPa93.00 %6.12 km/hO0.70 °C1.40 °C 
07:00:002.30 °C1016.80 hPa93.00 %1.30 °C 
06:45:002.50 °C1016.90 hPa93.00 %1.50 °C 
06:30:002.50 °C1016.80 hPa93.00 %1.50 °C 
06:15:002.60 °C1016.90 hPa93.00 %1.60 °C 
06:00:002.70 °C1016.80 hPa93.00 %1.70 °C 
05:45:002.60 °C1017.00 hPa93.00 %1.60 °C 
05:30:002.80 °C1017.00 hPa93.00 %1.80 °C 
05:15:002.80 °C1017.00 hPa93.00 %1.80 km/hSO2.80 °C1.80 °C 
05:00:002.90 °C1017.00 hPa93.00 %1.90 °C 
04:45:003.00 °C1017.10 hPa93.00 %2.00 °C 
04:30:002.90 °C1017.00 hPa93.00 %1.90 °C 
04:15:002.90 °C1017.10 hPa93.00 %1.90 °C 
04:00:003.00 °C1017.10 hPa93.00 %2.00 °C 
03:45:003.30 °C1017.10 hPa93.00 %2.30 °C 
03:30:003.20 °C1017.20 hPa93.00 %2.20 °C 
03:15:003.40 °C1017.20 hPa92.00 %2.20 °C 
03:00:003.60 °C1017.40 hPa92.00 %5.04 km/hOSO2.50 °C2.40 °C 
02:45:003.80 °C1017.40 hPa92.00 %2.60 °C 
02:30:003.60 °C1017.30 hPa92.00 %2.40 °C 
02:15:003.80 °C1017.30 hPa92.00 %2.60 °C 
02:00:003.70 °C1017.30 hPa92.00 %2.50 °C 
01:45:003.60 °C1017.40 hPa91.00 %2.30 °C 
01:30:003.90 °C1017.30 hPa92.00 %2.70 °C 
01:15:004.00 °C1017.20 hPa92.00 %1.44 km/hSO4.00 °C2.80 °C 
01:00:004.10 °C1017.20 hPa92.00 %2.90 °C 
00:45:004.20 °C1017.60 hPa91.00 %2.90 °C 
00:30:004.30 °C1017.60 hPa91.00 %3.00 °C 
00:15:004.50 °C1017.80 hPa91.00 %3.20 °C 
00:00:004.60 °C1017.80 hPa91.00 %3.30 °C 

Permanenter Link zu dieser Seite: Wetter im Erzgebirge am 25.09.2015
Performance-Info: Die Erstellung der Seite / Statistik(en) / Tabelle(n) erforderte 5 Datenbankserver-Abfrage(n) und dauerte 100 Millisekunden. (Dieser Messwert ist von der Gesamt-Auslastung des Servers abhängig.)
Erzgebirge - Wetter | Erzgebirge - Wetter (Mobilgeräte) | Komplette Klimadatenbank